sensor_id;sensor_type;location;lat;lon;timestamp;temperature;humidity
55648;DHT22;45266;48.756;9.246;2023-05-08T00:00:57;14.20;99.90
55648;DHT22;45266;48.756;9.246;2023-05-08T00:02:00;14.20;99.90
55648;DHT22;45266;48.756;9.246;2023-05-08T00:03:01;14.10;99.90
55648;DHT22;45266;48.756;9.246;2023-05-08T00:04:04;14.10;99.90
55648;DHT22;45266;48.756;9.246;2023-05-08T00:05:07;14.10;99.90
55648;DHT22;45266;48.756;9.246;2023-05-08T00:06:09;14.10;99.90
55648;DHT22;45266;48.756;9.246;2023-05-08T00:07:11;14.10;99.90
55648;DHT22;45266;48.756;9.246;2023-05-08T00:08:13;14.10;99.90
55648;DHT22;45266;48.756;9.246;2023-05-08T00:09:15;14.10;99.90
55648;DHT22;45266;48.756;9.246;2023-05-08T00:10:17;14.10;99.90
55648;DHT22;45266;48.756;9.246;2023-05-08T00:11:19;14.10;99.90
55648;DHT22;45266;48.756;9.246;2023-05-08T00:12:21;14.10;99.90
55648;DHT22;45266;48.756;9.246;2023-05-08T00:13:23;14.10;99.90
55648;DHT22;45266;48.756;9.246;2023-05-08T00:14:25;14.10;99.90
55648;DHT22;45266;48.756;9.246;2023-05-08T00:15:27;14.10;99.90
55648;DHT22;45266;48.756;9.246;2023-05-08T00:16:30;14.10;99.90
55648;DHT22;45266;48.756;9.246;2023-05-08T00:17:32;14.10;99.90
55648;DHT22;45266;48.756;9.246;2023-05-08T00:18:34;14.10;99.90
55648;DHT22;45266;48.756;9.246;2023-05-08T00:19:38;14.10;99.90
55648;DHT22;45266;48.756;9.246;2023-05-08T00:20:40;14.10;99.90
55648;DHT22;45266;48.756;9.246;2023-05-08T00:21:42;14.10;99.90
55648;DHT22;45266;48.756;9.246;2023-05-08T00:22:44;14.10;99.90
55648;DHT22;45266;48.756;9.246;2023-05-08T00:23:45;14.10;99.90
55648;DHT22;45266;48.756;9.246;2023-05-08T00:24:47;14.10;99.90
55648;DHT22;45266;48.756;9.246;2023-05-08T00:25:49;14.10;99.90
55648;DHT22;45266;48.756;9.246;2023-05-08T00:26:51;14.00;99.90
55648;DHT22;45266;48.756;9.246;2023-05-08T00:27:53;14.00;99.90
55648;DHT22;45266;48.756;9.246;2023-05-08T00:28:55;14.00;99.90
55648;DHT22;45266;48.756;9.246;2023-05-08T00:29:57;14.10;99.90
55648;DHT22;45266;48.756;9.246;2023-05-08T00:30:59;14.10;99.90
55648;DHT22;45266;48.756;9.246;2023-05-08T00:32:02;14.10;99.90
55648;DHT22;45266;48.756;9.246;2023-05-08T00:33:04;14.10;99.90
55648;DHT22;45266;48.756;9.246;2023-05-08T00:34:06;14.10;99.90
55648;DHT22;45266;48.756;9.246;2023-05-08T00:35:08;14.10;99.90
55648;DHT22;45266;48.756;9.246;2023-05-08T00:36:10;14.10;99.90
55648;DHT22;45266;48.756;9.246;2023-05-08T00:37:13;14.10;99.90
55648;DHT22;45266;48.756;9.246;2023-05-08T00:38:14;14.10;99.90
55648;DHT22;45266;48.756;9.246;2023-05-08T00:39:17;14.10;99.90
55648;DHT22;45266;48.756;9.246;2023-05-08T00:40:19;14.10;99.90
55648;DHT22;45266;48.756;9.246;2023-05-08T00:41:21;14.10;99.90
55648;DHT22;45266;48.756;9.246;2023-05-08T00:42:22;14.10;99.90
55648;DHT22;45266;48.756;9.246;2023-05-08T00:43:24;14.10;99.90
55648;DHT22;45266;48.756;9.246;2023-05-08T00:44:29;14.10;99.90
55648;DHT22;45266;48.756;9.246;2023-05-08T00:45:36;14.10;99.90
55648;DHT22;45266;48.756;9.246;2023-05-08T00:46:40;14.10;99.90
55648;DHT22;45266;48.756;9.246;2023-05-08T00:47:42;14.10;99.90
55648;DHT22;45266;48.756;9.246;2023-05-08T00:48:45;14.10;99.90
55648;DHT22;45266;48.756;9.246;2023-05-08T00:49:47;14.10;99.90
55648;DHT22;45266;48.756;9.246;2023-05-08T00:50:51;14.10;99.90
55648;DHT22;45266;48.756;9.246;2023-05-08T00:51:54;14.10;99.90
55648;DHT22;45266;48.756;9.246;2023-05-08T00:52:57;14.10;99.90
55648;DHT22;45266;48.756;9.246;2023-05-08T00:54:00;14.10;99.90
55648;DHT22;45266;48.756;9.246;2023-05-08T00:55:04;14.10;99.90
55648;DHT22;45266;48.756;9.246;2023-05-08T00:56:10;14.10;99.90
55648;DHT22;45266;48.756;9.246;2023-05-08T00:57:13;14.10;99.90
55648;DHT22;45266;48.756;9.246;2023-05-08T00:58:16;14.10;99.90
55648;DHT22;45266;48.756;9.246;2023-05-08T00:59:20;14.10;99.90
55648;DHT22;45266;48.756;9.246;2023-05-08T01:00:23;14.10;99.90
55648;DHT22;45266;48.756;9.246;2023-05-08T01:01:25;14.00;99.90
55648;DHT22;45266;48.756;9.246;2023-05-08T01:02:28;14.00;99.90
55648;DHT22;45266;48.756;9.246;2023-05-08T01:03:34;14.00;99.90
55648;DHT22;45266;48.756;9.246;2023-05-08T01:04:36;14.00;99.90
55648;DHT22;45266;48.756;9.246;2023-05-08T01:05:39;13.90;99.90
55648;DHT22;45266;48.756;9.246;2023-05-08T01:06:42;14.00;99.90
55648;DHT22;45266;48.756;9.246;2023-05-08T01:07:44;14.00;99.90
55648;DHT22;45266;48.756;9.246;2023-05-08T01:08:46;14.00;99.90
55648;DHT22;45266;48.756;9.246;2023-05-08T01:09:48;14.00;99.90
55648;DHT22;45266;48.756;9.246;2023-05-08T01:11:16;14.00;99.90
55648;DHT22;45266;48.756;9.246;2023-05-08T01:12:38;14.00;99.90
55648;DHT22;45266;48.756;9.246;2023-05-08T01:16:09;14.10;99.90
55648;DHT22;45266;48.756;9.246;2023-05-08T01:17:36;14.10;99.90
55648;DHT22;45266;48.756;9.246;2023-05-08T01:19:13;14.10;99.90
55648;DHT22;45266;48.756;9.246;2023-05-08T01:21:33;14.10;99.90
55648;DHT22;45266;48.756;9.246;2023-05-08T01:33:13;14.00;99.90
55648;DHT22;45266;48.756;9.246;2023-05-08T01:34:22;14.10;99.90
55648;DHT22;45266;48.756;9.246;2023-05-08T01:35:42;14.10;99.90
55648;DHT22;45266;48.756;9.246;2023-05-08T01:37:07;14.10;99.90
55648;DHT22;45266;48.756;9.246;2023-05-08T01:38:21;14.10;99.90
55648;DHT22;45266;48.756;9.246;2023-05-08T01:39:42;14.10;99.90
55648;DHT22;45266;48.756;9.246;2023-05-08T01:40:50;14.00;99.90
55648;DHT22;45266;48.756;9.246;2023-05-08T01:42:00;14.00;99.90
55648;DHT22;45266;48.756;9.246;2023-05-08T01:44:37;14.00;99.90
55648;DHT22;45266;48.756;9.246;2023-05-08T01:45:44;14.10;99.90
55648;DHT22;45266;48.756;9.246;2023-05-08T01:46:49;14.00;99.90
55648;DHT22;45266;48.756;9.246;2023-05-08T01:48:08;14.10;99.90
55648;DHT22;45266;48.756;9.246;2023-05-08T01:49:27;14.00;99.90
55648;DHT22;45266;48.756;9.246;2023-05-08T01:50:34;14.00;99.90
55648;DHT22;45266;48.756;9.246;2023-05-08T01:51:43;14.00;99.90
55648;DHT22;45266;48.756;9.246;2023-05-08T01:52:55;14.10;99.90
55648;DHT22;45266;48.756;9.246;2023-05-08T01:54:04;14.10;99.90
55648;DHT22;45266;48.756;9.246;2023-05-08T01:55:15;14.10;99.90
55648;DHT22;45266;48.756;9.246;2023-05-08T01:56:20;14.10;99.90
55648;DHT22;45266;48.756;9.246;2023-05-08T01:57:26;14.10;99.90
55648;DHT22;45266;48.756;9.246;2023-05-08T01:58:29;14.00;99.90
55648;DHT22;45266;48.756;9.246;2023-05-08T01:59:32;14.00;99.90
55648;DHT22;45266;48.756;9.246;2023-05-08T02:00:38;14.00;99.90
55648;DHT22;45266;48.756;9.246;2023-05-08T02:01:40;14.00;99.90
55648;DHT22;45266;48.756;9.246;2023-05-08T02:02:44;14.00;99.90
55648;DHT22;45266;48.756;9.246;2023-05-08T02:03:48;14.00;99.90
55648;DHT22;45266;48.756;9.246;2023-05-08T02:04:51;14.00;99.90
55648;DHT22;45266;48.756;9.246;2023-05-08T02:05:54;14.00;99.90
55648;DHT22;45266;48.756;9.246;2023-05-08T02:06:58;14.00;99.90
55648;DHT22;45266;48.756;9.246;2023-05-08T02:08:02;14.00;99.90
55648;DHT22;45266;48.756;9.246;2023-05-08T02:09:07;14.00;99.90
55648;DHT22;45266;48.756;9.246;2023-05-08T02:10:11;14.00;99.90
55648;DHT22;45266;48.756;9.246;2023-05-08T02:11:15;14.00;99.90
55648;DHT22;45266;48.756;9.246;2023-05-08T02:12:17;14.00;99.90
55648;DHT22;45266;48.756;9.246;2023-05-08T02:13:23;14.00;99.90
55648;DHT22;45266;48.756;9.246;2023-05-08T02:14:27;14.00;99.90
55648;DHT22;45266;48.756;9.246;2023-05-08T02:15:30;14.00;99.90
55648;DHT22;45266;48.756;9.246;2023-05-08T02:16:39;14.00;99.90
55648;DHT22;45266;48.756;9.246;2023-05-08T02:17:44;14.00;99.90
55648;DHT22;45266;48.756;9.246;2023-05-08T02:18:50;14.00;99.90
55648;DHT22;45266;48.756;9.246;2023-05-08T02:19:54;14.00;99.90
55648;DHT22;45266;48.756;9.246;2023-05-08T02:20:59;14.00;99.90
55648;DHT22;45266;48.756;9.246;2023-05-08T02:22:01;14.00;99.90
55648;DHT22;45266;48.756;9.246;2023-05-08T02:23:05;14.00;99.90
55648;DHT22;45266;48.756;9.246;2023-05-08T02:24:07;14.00;99.90
55648;DHT22;45266;48.756;9.246;2023-05-08T02:25:11;14.00;99.90
55648;DHT22;45266;48.756;9.246;2023-05-08T02:26:15;14.00;99.90
55648;DHT22;45266;48.756;9.246;2023-05-08T02:27:18;14.10;99.90
55648;DHT22;45266;48.756;9.246;2023-05-08T02:28:22;14.10;99.90
55648;DHT22;45266;48.756;9.246;2023-05-08T02:29:25;14.10;99.90
55648;DHT22;45266;48.756;9.246;2023-05-08T02:30:28;14.10;99.90
55648;DHT22;45266;48.756;9.246;2023-05-08T02:31:30;14.00;99.90
55648;DHT22;45266;48.756;9.246;2023-05-08T02:32:33;14.10;99.90
55648;DHT22;45266;48.756;9.246;2023-05-08T02:33:38;14.10;99.90
55648;DHT22;45266;48.756;9.246;2023-05-08T02:34:40;14.10;99.90
55648;DHT22;45266;48.756;9.246;2023-05-08T02:36:01;14.10;99.90
55648;DHT22;45266;48.756;9.246;2023-05-08T02:37:04;14.10;99.90
55648;DHT22;45266;48.756;9.246;2023-05-08T02:38:07;14.10;99.90
55648;DHT22;45266;48.756;9.246;2023-05-08T02:39:13;14.10;99.90
55648;DHT22;45266;48.756;9.246;2023-05-08T02:40:16;14.10;99.90
55648;DHT22;45266;48.756;9.246;2023-05-08T02:41:20;14.10;99.90
55648;DHT22;45266;48.756;9.246;2023-05-08T02:42:23;14.00;99.90
55648;DHT22;45266;48.756;9.246;2023-05-08T02:43:25;14.00;99.90
55648;DHT22;45266;48.756;9.246;2023-05-08T02:44:27;14.00;99.90
55648;DHT22;45266;48.756;9.246;2023-05-08T02:45:35;14.00;99.90
55648;DHT22;45266;48.756;9.246;2023-05-08T02:46:48;14.10;99.90
55648;DHT22;45266;48.756;9.246;2023-05-08T02:48:12;14.10;99.90
55648;DHT22;45266;48.756;9.246;2023-05-08T02:49:32;14.10;99.90
55648;DHT22;45266;48.756;9.246;2023-05-08T02:50:56;14.10;99.90
55648;DHT22;45266;48.756;9.246;2023-05-08T02:52:17;14.10;99.90
55648;DHT22;45266;48.756;9.246;2023-05-08T02:53:30;14.10;99.90
55648;DHT22;45266;48.756;9.246;2023-05-08T02:54:51;14.00;99.90
55648;DHT22;45266;48.756;9.246;2023-05-08T02:55:56;14.10;99.90
55648;DHT22;45266;48.756;9.246;2023-05-08T02:57:09;14.10;99.90
55648;DHT22;45266;48.756;9.246;2023-05-08T02:58:30;14.00;99.90
55648;DHT22;45266;48.756;9.246;2023-05-08T02:59:38;14.00;99.90
55648;DHT22;45266;48.756;9.246;2023-05-08T03:00:57;14.00;99.90
55648;DHT22;45266;48.756;9.246;2023-05-08T03:02:11;14.00;99.90
55648;DHT22;45266;48.756;9.246;2023-05-08T03:03:26;14.00;99.90
55648;DHT22;45266;48.756;9.246;2023-05-08T03:04:36;14.00;99.90
55648;DHT22;45266;48.756;9.246;2023-05-08T03:05:43;14.00;99.90
55648;DHT22;45266;48.756;9.246;2023-05-08T03:06:47;14.00;99.90
55648;DHT22;45266;48.756;9.246;2023-05-08T03:07:53;14.00;99.90
55648;DHT22;45266;48.756;9.246;2023-05-08T03:08:58;14.00;99.90
55648;DHT22;45266;48.756;9.246;2023-05-08T03:10:04;14.00;99.90
55648;DHT22;45266;48.756;9.246;2023-05-08T03:11:25;14.00;99.90
55648;DHT22;45266;48.756;9.246;2023-05-08T03:12:31;14.00;99.90
55648;DHT22;45266;48.756;9.246;2023-05-08T03:13:37;14.10;99.90
55648;DHT22;45266;48.756;9.246;2023-05-08T03:15:11;14.10;99.90
55648;DHT22;45266;48.756;9.246;2023-05-08T03:16:15;14.10;99.90
55648;DHT22;45266;48.756;9.246;2023-05-08T03:17:19;14.10;99.90
55648;DHT22;45266;48.756;9.246;2023-05-08T03:18:27;14.10;99.90
55648;DHT22;45266;48.756;9.246;2023-05-08T03:19:35;14.10;99.90
55648;DHT22;45266;48.756;9.246;2023-05-08T03:20:40;14.10;99.90
55648;DHT22;45266;48.756;9.246;2023-05-08T03:21:45;14.10;99.90
55648;DHT22;45266;48.756;9.246;2023-05-08T03:22:48;14.10;99.90
55648;DHT22;45266;48.756;9.246;2023-05-08T03:23:52;14.10;99.90
55648;DHT22;45266;48.756;9.246;2023-05-08T03:24:56;14.10;99.90
55648;DHT22;45266;48.756;9.246;2023-05-08T03:26:00;14.10;99.90
55648;DHT22;45266;48.756;9.246;2023-05-08T03:27:03;14.10;99.90
55648;DHT22;45266;48.756;9.246;2023-05-08T03:28:06;14.10;99.90
55648;DHT22;45266;48.756;9.246;2023-05-08T03:29:12;14.10;99.90
55648;DHT22;45266;48.756;9.246;2023-05-08T03:30:15;14.10;99.90
55648;DHT22;45266;48.756;9.246;2023-05-08T03:31:19;14.10;99.90
55648;DHT22;45266;48.756;9.246;2023-05-08T03:32:23;14.10;99.90
55648;DHT22;45266;48.756;9.246;2023-05-08T03:33:27;14.10;99.90
55648;DHT22;45266;48.756;9.246;2023-05-08T03:34:30;14.10;99.90
55648;DHT22;45266;48.756;9.246;2023-05-08T03:35:38;14.10;99.90
55648;DHT22;45266;48.756;9.246;2023-05-08T03:36:40;14.10;99.90
55648;DHT22;45266;48.756;9.246;2023-05-08T03:37:42;14.10;99.90
55648;DHT22;45266;48.756;9.246;2023-05-08T03:38:44;14.10;99.90
55648;DHT22;45266;48.756;9.246;2023-05-08T03:39:46;14.10;99.90
55648;DHT22;45266;48.756;9.246;2023-05-08T03:43:35;14.00;99.90
55648;DHT22;45266;48.756;9.246;2023-05-08T03:44:37;14.00;99.90
55648;DHT22;45266;48.756;9.246;2023-05-08T03:45:40;14.00;99.90
55648;DHT22;45266;48.756;9.246;2023-05-08T03:46:42;14.00;99.90
55648;DHT22;45266;48.756;9.246;2023-05-08T03:47:46;14.00;99.90
55648;DHT22;45266;48.756;9.246;2023-05-08T03:48:49;14.00;99.90
55648;DHT22;45266;48.756;9.246;2023-05-08T03:49:52;14.00;99.90
55648;DHT22;45266;48.756;9.246;2023-05-08T03:50:55;14.10;99.90
55648;DHT22;45266;48.756;9.246;2023-05-08T03:51:58;14.10;99.90
55648;DHT22;45266;48.756;9.246;2023-05-08T03:53:00;14.10;99.90
55648;DHT22;45266;48.756;9.246;2023-05-08T03:54:02;14.10;99.90
55648;DHT22;45266;48.756;9.246;2023-05-08T03:55:04;14.10;99.90
55648;DHT22;45266;48.756;9.246;2023-05-08T03:56:06;14.10;99.90
55648;DHT22;45266;48.756;9.246;2023-05-08T03:57:08;14.10;99.90
55648;DHT22;45266;48.756;9.246;2023-05-08T03:58:36;14.10;99.90
55648;DHT22;45266;48.756;9.246;2023-05-08T04:01:21;14.10;99.90
55648;DHT22;45266;48.756;9.246;2023-05-08T04:05:32;14.10;99.90
55648;DHT22;45266;48.756;9.246;2023-05-08T04:07:00;14.10;99.90
55648;DHT22;45266;48.756;9.246;2023-05-08T04:08:27;14.10;99.90
55648;DHT22;45266;48.756;9.246;2023-05-08T04:09:50;14.10;99.90
55648;DHT22;45266;48.756;9.246;2023-05-08T04:11:17;14.00;99.90
55648;DHT22;45266;48.756;9.246;2023-05-08T04:13:08;14.10;99.90
55648;DHT22;45266;48.756;9.246;2023-05-08T04:14:03;14.00;99.90
55648;DHT22;45266;48.756;9.246;2023-05-08T04:15:17;14.00;99.90
55648;DHT22;45266;48.756;9.246;2023-05-08T04:16:23;14.10;99.90
55648;DHT22;45266;48.756;9.246;2023-05-08T04:17:35;14.10;99.90
55648;DHT22;45266;48.756;9.246;2023-05-08T04:18:44;14.10;99.90
55648;DHT22;45266;48.756;9.246;2023-05-08T04:19:51;14.10;99.90
55648;DHT22;45266;48.756;9.246;2023-05-08T04:20:57;14.10;99.90
55648;DHT22;45266;48.756;9.246;2023-05-08T04:22:04;14.10;99.90
55648;DHT22;45266;48.756;9.246;2023-05-08T04:23:08;14.10;99.90
55648;DHT22;45266;48.756;9.246;2023-05-08T04:24:12;14.10;99.90
55648;DHT22;45266;48.756;9.246;2023-05-08T04:25:16;14.10;99.90
55648;DHT22;45266;48.756;9.246;2023-05-08T04:26:19;14.10;99.90
55648;DHT22;45266;48.756;9.246;2023-05-08T04:27:21;14.10;99.90
55648;DHT22;45266;48.756;9.246;2023-05-08T04:28:23;14.10;99.90
55648;DHT22;45266;48.756;9.246;2023-05-08T04:29:25;14.10;99.90
55648;DHT22;45266;48.756;9.246;2023-05-08T04:30:28;14.10;99.90
55648;DHT22;45266;48.756;9.246;2023-05-08T04:31:30;14.10;99.90
55648;DHT22;45266;48.756;9.246;2023-05-08T04:32:33;14.10;99.90
55648;DHT22;45266;48.756;9.246;2023-05-08T04:33:38;14.10;99.90
55648;DHT22;45266;48.756;9.246;2023-05-08T04:34:40;14.10;99.90
55648;DHT22;45266;48.756;9.246;2023-05-08T04:35:42;14.10;99.90
55648;DHT22;45266;48.756;9.246;2023-05-08T04:36:46;14.10;99.90
55648;DHT22;45266;48.756;9.246;2023-05-08T04:37:49;14.10;99.90
55648;DHT22;45266;48.756;9.246;2023-05-08T04:39:02;14.10;99.90
55648;DHT22;45266;48.756;9.246;2023-05-08T04:40:50;14.10;99.90
55648;DHT22;45266;48.756;9.246;2023-05-08T04:42:29;14.10;99.90
55648;DHT22;45266;48.756;9.246;2023-05-08T04:43:32;14.20;99.90
55648;DHT22;45266;48.756;9.246;2023-05-08T04:44:33;14.20;99.90
55648;DHT22;45266;48.756;9.246;2023-05-08T04:45:35;14.20;99.90
55648;DHT22;45266;48.756;9.246;2023-05-08T04:46:37;14.20;99.90
55648;DHT22;45266;48.756;9.246;2023-05-08T04:47:39;14.20;99.90
55648;DHT22;45266;48.756;9.246;2023-05-08T04:48:40;14.20;99.90
55648;DHT22;45266;48.756;9.246;2023-05-08T04:49:42;14.30;99.90
55648;DHT22;45266;48.756;9.246;2023-05-08T04:50:44;14.30;99.90
55648;DHT22;45266;48.756;9.246;2023-05-08T04:51:46;14.30;99.90
55648;DHT22;45266;48.756;9.246;2023-05-08T04:52:48;14.30;99.90
55648;DHT22;45266;48.756;9.246;2023-05-08T04:53:50;14.30;99.90
55648;DHT22;45266;48.756;9.246;2023-05-08T04:54:52;14.30;99.90
55648;DHT22;45266;48.756;9.246;2023-05-08T04:55:54;14.30;99.90
55648;DHT22;45266;48.756;9.246;2023-05-08T04:56:56;14.30;99.90
55648;DHT22;45266;48.756;9.246;2023-05-08T04:57:57;14.40;99.90
55648;DHT22;45266;48.756;9.246;2023-05-08T04:58:59;14.40;99.90
55648;DHT22;45266;48.756;9.246;2023-05-08T05:00:01;14.40;99.90
55648;DHT22;45266;48.756;9.246;2023-05-08T05:01:04;14.40;99.90
55648;DHT22;45266;48.756;9.246;2023-05-08T05:02:06;14.40;99.90
55648;DHT22;45266;48.756;9.246;2023-05-08T05:03:09;14.40;99.90
55648;DHT22;45266;48.756;9.246;2023-05-08T05:04:11;14.40;99.90
55648;DHT22;45266;48.756;9.246;2023-05-08T05:05:13;14.40;99.90
55648;DHT22;45266;48.756;9.246;2023-05-08T05:06:15;14.40;99.90
55648;DHT22;45266;48.756;9.246;2023-05-08T05:07:17;14.50;99.90
55648;DHT22;45266;48.756;9.246;2023-05-08T05:08:19;14.50;99.90
55648;DHT22;45266;48.756;9.246;2023-05-08T05:09:21;14.50;99.90
55648;DHT22;45266;48.756;9.246;2023-05-08T05:10:24;14.50;99.90
55648;DHT22;45266;48.756;9.246;2023-05-08T05:11:26;14.50;99.90
55648;DHT22;45266;48.756;9.246;2023-05-08T05:12:28;14.50;99.90
55648;DHT22;45266;48.756;9.246;2023-05-08T05:13:30;14.60;99.90
55648;DHT22;45266;48.756;9.246;2023-05-08T05:14:33;14.60;99.90
55648;DHT22;45266;48.756;9.246;2023-05-08T05:15:34;14.60;99.90
55648;DHT22;45266;48.756;9.246;2023-05-08T05:16:36;14.60;99.90
55648;DHT22;45266;48.756;9.246;2023-05-08T05:17:38;14.60;99.90
55648;DHT22;45266;48.756;9.246;2023-05-08T05:18:40;14.60;99.90
55648;DHT22;45266;48.756;9.246;2023-05-08T05:19:42;14.60;99.90
55648;DHT22;45266;48.756;9.246;2023-05-08T05:20:44;14.60;99.90
55648;DHT22;45266;48.756;9.246;2023-05-08T05:21:47;14.60;99.90
55648;DHT22;45266;48.756;9.246;2023-05-08T05:22:48;14.60;99.90
55648;DHT22;45266;48.756;9.246;2023-05-08T05:23:50;14.60;99.90
55648;DHT22;45266;48.756;9.246;2023-05-08T05:24:52;14.60;99.90
55648;DHT22;45266;48.756;9.246;2023-05-08T05:25:54;14.60;99.90
55648;DHT22;45266;48.756;9.246;2023-05-08T05:26:56;14.60;99.90
55648;DHT22;45266;48.756;9.246;2023-05-08T05:27:58;14.60;99.90
55648;DHT22;45266;48.756;9.246;2023-05-08T05:29:00;14.60;99.90
55648;DHT22;45266;48.756;9.246;2023-05-08T05:30:02;14.60;99.90
55648;DHT22;45266;48.756;9.246;2023-05-08T05:31:04;14.60;99.90
55648;DHT22;45266;48.756;9.246;2023-05-08T05:32:06;14.60;99.90
55648;DHT22;45266;48.756;9.246;2023-05-08T05:33:09;14.60;99.90
55648;DHT22;45266;48.756;9.246;2023-05-08T05:34:11;14.60;99.90
55648;DHT22;45266;48.756;9.246;2023-05-08T05:35:13;14.60;99.90
55648;DHT22;45266;48.756;9.246;2023-05-08T05:36:15;14.60;99.90
55648;DHT22;45266;48.756;9.246;2023-05-08T05:37:17;14.60;99.90
55648;DHT22;45266;48.756;9.246;2023-05-08T05:38:20;14.60;99.90
55648;DHT22;45266;48.756;9.246;2023-05-08T05:39:21;14.60;99.90
55648;DHT22;45266;48.756;9.246;2023-05-08T05:40:23;14.60;99.90
55648;DHT22;45266;48.756;9.246;2023-05-08T05:41:25;14.60;99.90
55648;DHT22;45266;48.756;9.246;2023-05-08T05:42:27;14.60;99.90
55648;DHT22;45266;48.756;9.246;2023-05-08T05:43:29;14.60;99.90
55648;DHT22;45266;48.756;9.246;2023-05-08T05:44:30;14.60;99.90
55648;DHT22;45266;48.756;9.246;2023-05-08T05:45:32;14.70;99.90
55648;DHT22;45266;48.756;9.246;2023-05-08T05:46:34;14.70;99.90
55648;DHT22;45266;48.756;9.246;2023-05-08T05:47:36;14.60;99.90
55648;DHT22;45266;48.756;9.246;2023-05-08T05:48:38;14.60;99.90
55648;DHT22;45266;48.756;9.246;2023-05-08T05:49:40;14.60;99.90
55648;DHT22;45266;48.756;9.246;2023-05-08T05:50:47;14.60;99.90
55648;DHT22;45266;48.756;9.246;2023-05-08T05:51:49;14.60;99.90
55648;DHT22;45266;48.756;9.246;2023-05-08T05:52:50;14.60;99.90
55648;DHT22;45266;48.756;9.246;2023-05-08T05:53:54;14.60;99.90
55648;DHT22;45266;48.756;9.246;2023-05-08T05:54:56;14.60;99.90
55648;DHT22;45266;48.756;9.246;2023-05-08T05:55:57;14.60;99.90
55648;DHT22;45266;48.756;9.246;2023-05-08T05:56:59;14.60;99.90
55648;DHT22;45266;48.756;9.246;2023-05-08T05:58:01;14.60;99.90
55648;DHT22;45266;48.756;9.246;2023-05-08T05:59:03;14.60;99.90
55648;DHT22;45266;48.756;9.246;2023-05-08T06:00:06;14.60;99.90
55648;DHT22;45266;48.756;9.246;2023-05-08T06:01:08;14.60;99.90
55648;DHT22;45266;48.756;9.246;2023-05-08T06:02:10;14.60;99.90
55648;DHT22;45266;48.756;9.246;2023-05-08T06:03:19;14.60;99.90
55648;DHT22;45266;48.756;9.246;2023-05-08T06:04:21;14.60;99.90
55648;DHT22;45266;48.756;9.246;2023-05-08T06:05:23;14.60;99.90
55648;DHT22;45266;48.756;9.246;2023-05-08T06:06:25;14.60;99.90
55648;DHT22;45266;48.756;9.246;2023-05-08T06:07:27;14.60;99.90
55648;DHT22;45266;48.756;9.246;2023-05-08T06:08:29;14.70;99.90
55648;DHT22;45266;48.756;9.246;2023-05-08T06:09:31;14.70;99.90
55648;DHT22;45266;48.756;9.246;2023-05-08T06:10:33;14.60;99.90
55648;DHT22;45266;48.756;9.246;2023-05-08T06:11:35;14.70;99.90
55648;DHT22;45266;48.756;9.246;2023-05-08T06:12:37;14.70;99.90
55648;DHT22;45266;48.756;9.246;2023-05-08T06:13:39;14.70;99.90
55648;DHT22;45266;48.756;9.246;2023-05-08T06:14:41;14.70;99.90
55648;DHT22;45266;48.756;9.246;2023-05-08T06:15:43;14.70;99.90
55648;DHT22;45266;48.756;9.246;2023-05-08T06:16:45;14.70;99.90
55648;DHT22;45266;48.756;9.246;2023-05-08T06:17:47;14.80;99.90
55648;DHT22;45266;48.756;9.246;2023-05-08T06:18:49;14.80;99.90
55648;DHT22;45266;48.756;9.246;2023-05-08T06:19:52;14.80;99.90
55648;DHT22;45266;48.756;9.246;2023-05-08T06:20:57;14.80;99.90
55648;DHT22;45266;48.756;9.246;2023-05-08T06:21:59;14.80;99.90
55648;DHT22;45266;48.756;9.246;2023-05-08T06:23:01;14.90;99.90
55648;DHT22;45266;48.756;9.246;2023-05-08T06:24:03;14.90;99.90
55648;DHT22;45266;48.756;9.246;2023-05-08T06:25:06;14.90;99.90
55648;DHT22;45266;48.756;9.246;2023-05-08T06:26:08;15.00;99.90
55648;DHT22;45266;48.756;9.246;2023-05-08T06:27:10;15.00;99.90
55648;DHT22;45266;48.756;9.246;2023-05-08T06:28:12;15.00;99.90
55648;DHT22;45266;48.756;9.246;2023-05-08T06:29:14;15.00;99.90
55648;DHT22;45266;48.756;9.246;2023-05-08T06:30:16;15.00;99.90
55648;DHT22;45266;48.756;9.246;2023-05-08T06:31:18;15.00;99.90
55648;DHT22;45266;48.756;9.246;2023-05-08T06:32:20;15.00;99.90
55648;DHT22;45266;48.756;9.246;2023-05-08T06:33:22;15.10;99.90
55648;DHT22;45266;48.756;9.246;2023-05-08T06:34:27;15.10;99.90
55648;DHT22;45266;48.756;9.246;2023-05-08T06:35:29;15.10;99.90
55648;DHT22;45266;48.756;9.246;2023-05-08T06:36:30;15.10;99.90
55648;DHT22;45266;48.756;9.246;2023-05-08T06:37:32;15.10;99.90
55648;DHT22;45266;48.756;9.246;2023-05-08T06:38:34;15.10;99.90
55648;DHT22;45266;48.756;9.246;2023-05-08T06:39:36;15.10;99.90
55648;DHT22;45266;48.756;9.246;2023-05-08T06:40:41;15.10;99.90
55648;DHT22;45266;48.756;9.246;2023-05-08T06:41:47;15.10;99.90
55648;DHT22;45266;48.756;9.246;2023-05-08T06:42:49;15.10;99.90
55648;DHT22;45266;48.756;9.246;2023-05-08T06:43:51;15.10;99.90
55648;DHT22;45266;48.756;9.246;2023-05-08T06:44:53;15.10;99.90
55648;DHT22;45266;48.756;9.246;2023-05-08T06:45:55;15.20;99.90
55648;DHT22;45266;48.756;9.246;2023-05-08T06:46:56;15.20;99.90
55648;DHT22;45266;48.756;9.246;2023-05-08T06:47:58;15.20;99.90
55648;DHT22;45266;48.756;9.246;2023-05-08T06:49:00;15.20;99.90
55648;DHT22;45266;48.756;9.246;2023-05-08T06:50:02;15.30;99.90
55648;DHT22;45266;48.756;9.246;2023-05-08T06:51:04;15.30;99.90
55648;DHT22;45266;48.756;9.246;2023-05-08T06:52:06;15.30;99.90
55648;DHT22;45266;48.756;9.246;2023-05-08T06:53:08;15.30;99.90
55648;DHT22;45266;48.756;9.246;2023-05-08T06:54:10;15.40;99.90
55648;DHT22;45266;48.756;9.246;2023-05-08T06:55:11;15.40;99.90
55648;DHT22;45266;48.756;9.246;2023-05-08T06:56:13;15.40;99.90
55648;DHT22;45266;48.756;9.246;2023-05-08T06:57:15;15.30;99.90
55648;DHT22;45266;48.756;9.246;2023-05-08T06:58:17;15.40;99.90
55648;DHT22;45266;48.756;9.246;2023-05-08T06:59:22;15.40;99.90
55648;DHT22;45266;48.756;9.246;2023-05-08T07:00:24;15.30;99.90
55648;DHT22;45266;48.756;9.246;2023-05-08T07:01:26;15.40;99.90
55648;DHT22;45266;48.756;9.246;2023-05-08T07:02:28;15.40;99.90
55648;DHT22;45266;48.756;9.246;2023-05-08T07:03:30;15.40;99.90
55648;DHT22;45266;48.756;9.246;2023-05-08T07:04:32;15.40;99.90
55648;DHT22;45266;48.756;9.246;2023-05-08T07:05:34;15.40;99.90
55648;DHT22;45266;48.756;9.246;2023-05-08T07:06:36;15.40;99.90
55648;DHT22;45266;48.756;9.246;2023-05-08T07:07:38;15.40;99.90
55648;DHT22;45266;48.756;9.246;2023-05-08T07:08:40;15.40;99.90
55648;DHT22;45266;48.756;9.246;2023-05-08T07:09:42;15.50;99.90
55648;DHT22;45266;48.756;9.246;2023-05-08T07:10:44;15.50;99.90
55648;DHT22;45266;48.756;9.246;2023-05-08T07:11:46;15.50;99.90
55648;DHT22;45266;48.756;9.246;2023-05-08T07:12:49;15.50;99.90
55648;DHT22;45266;48.756;9.246;2023-05-08T07:13:51;15.50;99.90